Time;durP1;ratioP1;P1;durP2;ratioP2;P2;SDS_P1;SDS_P2;PMS_P1;PMS_P2;Temp;Humidity;BMP_temperature;BMP_pressure;BME280_temperature;BME280_humidity;BME280_pressure;Samples;Min_cycle;Max_cycle;Signal;HPM_P1;HPM_P2
2022/12/28 00:00:01;;;;;;;16.37;10.27;;;2.00;99.90;;;;;;5033498;28;20872;-70
2022/12/28 00:02:28;;;;;;;23.63;10.60;;;2.00;99.90;;;;;;5033205;28;20477;-70
2022/12/28 00:04:54;;;;;;;26.90;10.30;;;1.90;99.90;;;;;;5033212;28;21005;-70
2022/12/28 00:07:21;;;;;;;24.07;10.57;;;1.90;99.90;;;;;;5037336;28;20453;-70
2022/12/28 00:09:48;;;;;;;25.77;10.57;;;1.90;99.90;;;;;;5033643;28;20456;-71
2022/12/28 00:12:15;;;;;;;15.47;8.83;;;1.80;99.90;;;;;;5033257;28;20485;-70
2022/12/28 00:14:41;;;;;;;17.40;10.37;;;1.90;99.90;;;;;;5039733;28;21031;-70
2022/12/28 00:17:09;;;;;;;19.57;10.10;;;1.80;99.90;;;;;;5038632;28;20961;-69
2022/12/28 00:19:36;;;;;;;17.47;10.10;;;1.70;99.90;;;;;;5032909;28;20496;-70
2022/12/28 00:22:03;;;;;;;25.07;10.10;;;1.80;99.90;;;;;;5032382;28;20445;-70
2022/12/28 00:24:29;;;;;;;21.33;10.90;;;1.80;99.90;;;;;;5032878;28;20930;-70
2022/12/28 00:26:56;;;;;;;28.43;10.67;;;1.80;99.90;;;;;;5035353;28;20667;-71
2022/12/28 00:29:23;;;;;;;15.93;9.77;;;1.90;99.90;;;;;;5037490;28;20454;-70
2022/12/28 00:31:50;;;;;;;19.43;10.33;;;1.80;99.90;;;;;;5032632;28;21000;-71
2022/12/28 00:34:17;;;;;;;23.30;10.50;;;1.90;99.90;;;;;;5032966;28;20519;-71
2022/12/28 00:36:44;;;;;;;15.00;9.93;;;1.90;99.90;;;;;;5032800;28;20481;-71
2022/12/28 00:39:11;;;;;;;15.50;9.67;;;1.90;99.90;;;;;;5032659;28;20462;-71
2022/12/28 00:41:37;;;;;;;18.73;9.53;;;1.80;99.90;;;;;;5032494;28;20449;-70
2022/12/28 00:44:04;;;;;;;18.60;10.57;;;1.90;99.90;;;;;;5032728;28;20462;-71
2022/12/28 00:46:31;;;;;;;16.73;9.37;;;1.80;99.90;;;;;;5032456;28;20528;-71
2022/12/28 00:48:58;;;;;;;20.30;10.97;;;1.80;99.90;;;;;;5036210;28;20523;-71
2022/12/28 00:51:26;;;;;;;15.40;10.07;;;1.70;99.90;;;;;;5032853;28;20486;-71
2022/12/28 00:53:52;;;;;;;17.73;10.07;;;1.80;99.90;;;;;;5032338;28;20469;-71
2022/12/28 00:56:21;;;;;;;19.60;8.90;;;1.80;99.90;;;;;;5035597;28;20523;-71
2022/12/28 00:58:48;;;;;;;16.10;10.57;;;1.80;99.90;;;;;;5033219;28;20539;-71
2022/12/28 01:01:17;;;;;;;19.27;10.20;;;1.90;99.90;;;;;;5032777;28;20507;-71
2022/12/28 01:03:44;;;;;;;24.23;11.20;;;1.80;99.90;;;;;;5031019;28;20461;-70
2022/12/28 01:06:12;;;;;;;16.07;10.30;;;1.80;99.90;;;;;;5032589;28;20477;-70
2022/12/28 01:08:41;;;;;;;19.80;11.33;;;1.80;99.90;;;;;;5032357;28;20458;-71
2022/12/28 01:11:08;;;;;;;18.10;10.97;;;1.80;99.90;;;;;;5033058;28;21087;-71
2022/12/28 01:13:35;;;;;;;18.97;11.50;;;1.80;99.90;;;;;;5031780;28;20449;-70
2022/12/28 01:16:10;;;;;;;26.10;11.33;;;1.80;99.90;;;;;;5032095;28;20517;-71
2022/12/28 01:18:36;;;;;;;25.20;12.83;;;1.80;99.90;;;;;;5032311;28;20461;-70
2022/12/28 01:21:08;;;;;;;25.20;14.10;;;2.00;99.90;;;;;;5032119;28;20922;-71
2022/12/28 01:23:35;;;;;;;22.43;12.97;;;2.10;99.90;;;;;;5033404;28;20961;-70
2022/12/28 01:26:03;;;;;;;23.00;13.63;;;2.30;99.90;;;;;;5032434;28;20474;-70
2022/12/28 01:28:30;;;;;;;26.40;14.40;;;2.40;99.90;;;;;;5031493;28;20875;-71
2022/12/28 01:30:57;;;;;;;29.00;14.70;;;2.40;99.90;;;;;;5031925;28;20454;-70
2022/12/28 01:33:23;;;;;;;29.87;17.00;;;2.50;99.90;;;;;;5031765;28;20450;-71
2022/12/28 01:35:50;;;;;;;30.13;16.37;;;2.50;99.90;;;;;;5031516;28;20481;-71
2022/12/28 01:38:16;;;;;;;37.37;16.47;;;2.50;99.90;;;;;;5035727;28;20515;-71
2022/12/28 01:40:43;;;;;;;33.70;17.03;;;2.50;99.90;;;;;;5036590;28;20453;-70
2022/12/28 01:43:14;;;;;;;28.50;16.27;;;2.50;99.90;;;;;;5031828;28;20454;-71
2022/12/28 01:45:42;;;;;;;33.20;16.77;;;2.50;99.90;;;;;;5031300;28;20473;-70
2022/12/28 01:48:18;;;;;;;32.90;16.63;;;2.50;99.90;;;;;;5031333;28;20462;-71
2022/12/28 01:50:45;;;;;;;34.27;16.70;;;2.50;99.90;;;;;;5031457;28;20461;-70
2022/12/28 01:53:11;;;;;;;32.87;17.57;;;2.50;99.90;;;;;;5031257;28;20494;-70
2022/12/28 01:55:41;;;;;;;29.73;16.80;;;2.50;99.90;;;;;;5031258;28;20482;-71
2022/12/28 01:58:11;;;;;;;29.97;17.07;;;2.50;99.90;;;;;;5035396;28;20509;-70
2022/12/28 02:00:39;;;;;;;37.07;18.40;;;2.40;99.90;;;;;;5032176;28;20515;-71
2022/12/28 02:03:11;;;;;;;32.47;17.90;;;2.50;99.90;;;;;;5032518;28;20512;-70
2022/12/28 02:05:41;;;;;;;28.27;15.70;;;2.50;99.90;;;;;;5037951;28;20485;-70
2022/12/28 02:08:13;;;;;;;35.80;16.03;;;2.50;99.90;;;;;;5031579;28;20501;-70
2022/12/28 02:10:41;;;;;;;36.60;16.93;;;2.50;99.90;;;;;;5031385;28;20457;-71
2022/12/28 02:13:09;;;;;;;31.83;17.50;;;2.60;99.90;;;;;;5031424;28;20539;-71
2022/12/28 02:15:36;;;;;;;40.30;16.80;;;2.60;99.90;;;;;;5030578;28;20987;-70
2022/12/28 02:18:04;;;;;;;36.23;16.97;;;2.60;99.90;;;;;;5031611;28;20504;-70
2022/12/28 02:20:37;;;;;;;32.60;17.40;;;2.60;99.90;;;;;;5031544;28;20445;-71
2022/12/28 02:23:35;;;;;;;28.03;16.73;;;2.60;99.90;;;;;;5031016;28;20450;-70
2022/12/28 02:26:27;;;;;;;27.43;15.63;;;2.60;99.90;;;;;;5031217;28;20523;-70
2022/12/28 02:29:34;;;;;;;29.10;15.43;;;2.60;99.90;;;;;;5031071;28;20442;-71
2022/12/28 02:32:11;;;;;;;28.83;17.27;;;2.60;99.90;;;;;;5031111;28;20490;-70
2022/12/28 02:34:46;;;;;;;33.73;16.63;;;2.70;99.90;;;;;;5030466;28;20453;-71
2022/12/28 02:37:17;;;;;;;34.60;17.30;;;2.70;99.90;;;;;;5031362;28;20453;-70
2022/12/28 02:39:47;;;;;;;39.83;17.20;;;2.70;99.90;;;;;;5031101;28;20866;-71
2022/12/28 02:42:15;;;;;;;26.10;16.43;;;2.80;99.90;;;;;;5030974;28;20476;-71
2022/12/28 02:50:14;;;;;;;29.20;16.10;;;2.80;99.90;;;;;;5023507;28;20441;-71
2022/12/28 02:53:10;;;;;;;30.23;16.13;;;2.80;99.90;;;;;;5030472;28;20902;-71
2022/12/28 02:56:08;;;;;;;27.77;16.43;;;2.80;99.90;;;;;;5030957;28;20536;-70
2022/12/28 02:59:06;;;;;;;30.33;16.03;;;2.80;99.90;;;;;;5035457;28;20452;-70
2022/12/28 03:02:02;;;;;;;29.70;15.40;;;2.90;99.90;;;;;;5030902;28;20500;-70
2022/12/28 03:04:42;;;;;;;28.77;15.17;;;2.90;99.90;;;;;;5026140;28;20819;-70
2022/12/28 03:10:12;;;;;;;26.40;15.27;;;3.00;99.90;;;;;;5030895;28;20527;-70
2022/12/28 03:12:46;;;;;;;28.47;15.40;;;3.10;99.90;;;;;;5033756;28;20516;-70
2022/12/28 03:15:28;;;;;;;30.57;16.20;;;3.10;99.90;;;;;;5032347;28;20523;-71
2022/12/28 03:31:50;;;;;;;29.50;16.43;;;3.20;99.90;;;;;;5033490;28;20508;-71
2022/12/28 03:34:18;;;;;;;27.27;14.97;;;3.20;99.90;;;;;;5033949;28;20453;-70
2022/12/28 03:36:52;;;;;;;37.00;18.07;;;3.20;99.90;;;;;;5034135;28;20477;-71
2022/12/28 03:39:28;;;;;;;36.00;18.60;;;3.20;99.90;;;;;;5040336;28;20457;-71
2022/12/28 03:44:50;;;;;;;24.70;15.30;;;3.30;99.90;;;;;;5033573;28;20535;-71
2022/12/28 03:47:21;;;;;;;26.70;15.27;;;3.30;99.90;;;;;;5040455;28;20446;-70
2022/12/28 03:49:49;;;;;;;28.37;15.23;;;3.30;99.90;;;;;;5034095;28;20450;-70
2022/12/28 03:52:16;;;;;;;32.90;17.67;;;3.30;99.90;;;;;;5037235;28;20480;-70
2022/12/28 03:54:43;;;;;;;37.80;18.00;;;3.30;99.90;;;;;;5035170;28;20938;-71
2022/12/28 03:57:10;;;;;;;33.77;17.77;;;3.30;99.90;;;;;;5034041;28;20495;-70
2022/12/28 03:59:36;;;;;;;29.93;16.33;;;3.30;99.90;;;;;;5037328;28;20457;-71
2022/12/28 04:02:03;;;;;;;31.73;16.40;;;3.40;99.90;;;;;;5034123;28;20477;-71
2022/12/28 04:04:30;;;;;;;31.97;17.30;;;3.40;99.90;;;;;;5033503;28;20528;-71
2022/12/28 04:06:57;;;;;;;27.67;15.03;;;3.40;99.90;;;;;;5033055;28;20992;-71
2022/12/28 04:09:24;;;;;;;34.47;17.27;;;3.40;99.90;;;;;;5033053;28;20461;-70
2022/12/28 04:11:51;;;;;;;29.87;15.80;;;3.40;99.90;;;;;;5033500;28;20485;-71
2022/12/28 04:14:17;;;;;;;25.83;15.93;;;3.40;99.90;;;;;;5033188;28;20511;-71
2022/12/28 04:16:44;;;;;;;29.57;16.73;;;3.40;99.90;;;;;;5033429;28;20544;-71
2022/12/28 04:19:10;;;;;;;35.40;17.50;;;3.50;99.90;;;;;;5033527;28;20454;-71
2022/12/28 04:21:37;;;;;;;31.30;16.27;;;3.50;99.90;;;;;;5033370;28;20470;-70
2022/12/28 04:24:06;;;;;;;30.03;16.83;;;3.50;99.90;;;;;;5033136;28;20496;-70
2022/12/28 04:26:32;;;;;;;37.70;15.73;;;3.60;99.90;;;;;;5032876;28;20478;-71
2022/12/28 04:29:00;;;;;;;26.07;16.20;;;3.60;99.90;;;;;;5033044;28;20458;-71
2022/12/28 04:31:28;;;;;;;30.80;17.80;;;3.60;99.90;;;;;;5033402;28;20457;-71
2022/12/28 04:33:57;;;;;;;30.60;18.63;;;3.70;99.90;;;;;;5034015;28;20534;-71
2022/12/28 04:36:24;;;;;;;37.43;19.03;;;3.70;99.90;;;;;;5033043;28;20527;-71
2022/12/28 04:38:50;;;;;;;35.20;17.00;;;3.60;99.90;;;;;;5032392;28;20942;-70
2022/12/28 04:41:18;;;;;;;34.10;20.20;;;3.60;99.90;;;;;;5032801;28;20965;-70
2022/12/28 04:43:45;;;;;;;43.37;19.33;;;3.60;99.90;;;;;;5032539;28;20503;-71
2022/12/28 04:46:13;;;;;;;38.83;21.20;;;3.50;99.90;;;;;;5032924;28;20477;-71
2022/12/28 04:48:40;;;;;;;35.37;19.97;;;3.50;99.90;;;;;;5032793;28;20958;-70
2022/12/28 04:51:09;;;;;;;38.50;22.27;;;3.50;99.90;;;;;;5032920;28;20453;-71
2022/12/28 04:53:39;;;;;;;37.20;21.37;;;3.50;99.90;;;;;;5032280;28;20486;-71
2022/12/28 04:56:07;;;;;;;44.73;23.47;;;3.50;99.90;;;;;;5032633;28;20469;-71
2022/12/28 04:58:35;;;;;;;37.37;21.00;;;3.50;99.90;;;;;;5039099;28;20450;-71
2022/12/28 05:01:03;;;;;;;49.47;23.30;;;3.50;99.90;;;;;;5032308;28;20508;-70
2022/12/28 05:03:30;;;;;;;40.70;22.40;;;3.60;99.90;;;;;;5032180;28;20457;-70
2022/12/28 05:06:00;;;;;;;36.17;20.67;;;3.60;99.90;;;;;;5032519;28;20536;-70
2022/12/28 05:08:27;;;;;;;49.50;24.47;;;3.60;99.90;;;;;;5032123;28;20886;-70
2022/12/28 05:10:53;;;;;;;49.20;23.53;;;3.60;99.90;;;;;;5034479;28;20540;-70
2022/12/28 05:13:20;;;;;;;43.37;22.03;;;3.60;99.90;;;;;;5032061;28;20982;-70
2022/12/28 05:15:48;;;;;;;39.13;21.37;;;3.60;99.90;;;;;;5031822;28;20474;-70
2022/12/28 05:18:14;;;;;;;38.27;21.60;;;3.60;99.90;;;;;;5032058;28;20458;-70
2022/12/28 05:20:41;;;;;;;41.83;21.27;;;3.60;99.90;;;;;;5039853;28;20465;-70
2022/12/28 05:23:08;;;;;;;40.03;21.80;;;3.70;99.90;;;;;;5031453;28;20454;-70
2022/12/28 05:25:34;;;;;;;40.13;21.80;;;3.70;99.90;;;;;;5034385;28;20531;-70
2022/12/28 05:28:01;;;;;;;35.97;19.83;;;3.70;99.90;;;;;;5032155;28;20457;-70
2022/12/28 05:30:28;;;;;;;31.30;19.00;;;3.70;99.90;;;;;;5031938;28;21096;-71
2022/12/28 05:32:55;;;;;;;36.77;19.37;;;3.80;99.90;;;;;;5031723;28;20485;-70
2022/12/28 05:35:22;;;;;;;40.17;19.37;;;3.80;99.90;;;;;;5031618;28;20504;-70
2022/12/28 05:37:49;;;;;;;30.77;17.80;;;3.80;99.90;;;;;;5031892;28;20503;-70
2022/12/28 05:40:15;;;;;;;33.57;18.27;;;3.90;99.90;;;;;;5032921;28;20461;-69
2022/12/28 05:42:42;;;;;;;29.53;16.73;;;3.90;99.90;;;;;;5035945;28;20462;-71
2022/12/28 05:45:09;;;;;;;39.17;18.13;;;3.90;99.90;;;;;;5031003;28;20466;-71
2022/12/28 05:47:36;;;;;;;45.17;18.23;;;3.90;99.90;;;;;;5031843;28;20485;-71
2022/12/28 05:50:05;;;;;;;32.50;18.53;;;4.00;99.90;;;;;;5030772;28;20981;-70
2022/12/28 05:52:32;;;;;;;27.90;17.40;;;4.00;99.90;;;;;;5036613;28;20477;-70
2022/12/28 05:54:58;;;;;;;33.73;16.33;;;4.00;99.90;;;;;;5033016;28;20535;-70
2022/12/28 05:57:25;;;;;;;30.50;18.67;;;4.00;99.90;;;;;;5031681;28;20453;-70
2022/12/28 05:59:51;;;;;;;36.20;18.90;;;4.00;99.90;;;;;;5031529;28;20469;-70
2022/12/28 06:02:18;;;;;;;28.90;17.50;;;4.00;99.90;;;;;;5031438;28;20511;-70
2022/12/28 06:04:45;;;;;;;28.97;18.40;;;4.00;99.90;;;;;;5030808;28;20515;-71
2022/12/28 06:07:13;;;;;;;29.50;17.80;;;4.00;99.90;;;;;;5033632;28;20504;-70
2022/12/28 06:09:39;;;;;;;26.53;17.07;;;4.00;99.90;;;;;;5030972;28;20985;-70
2022/12/28 06:12:06;;;;;;;33.97;18.80;;;4.00;99.90;;;;;;5031363;28;20458;-70
2022/12/28 06:14:33;;;;;;;33.30;18.27;;;4.00;99.90;;;;;;5031017;28;20503;-70
2022/12/28 06:16:59;;;;;;;34.70;18.30;;;4.00;99.90;;;;;;5031360;28;20445;-71
2022/12/28 06:19:26;;;;;;;35.63;18.03;;;4.00;99.90;;;;;;5031220;28;20453;-71
2022/12/28 06:21:53;;;;;;;27.10;17.17;;;4.00;99.90;;;;;;5034978;28;20457;-70
2022/12/28 06:24:21;;;;;;;31.47;17.77;;;4.00;99.90;;;;;;5030870;28;20458;-70
2022/12/28 06:26:48;;;;;;;45.37;17.07;;;4.00;99.90;;;;;;5030848;28;20470;-70
2022/12/28 06:29:15;;;;;;;34.67;18.33;;;4.00;99.90;;;;;;5031039;28;20454;-70
2022/12/28 06:31:45;;;;;;;26.53;17.17;;;4.00;99.90;;;;;;5031009;28;20449;-70
2022/12/28 06:34:12;;;;;;;26.50;15.60;;;4.00;99.90;;;;;;5031049;28;20496;-70
2022/12/28 06:36:40;;;;;;;26.53;17.47;;;4.00;99.90;;;;;;5035917;28;20527;-70
2022/12/28 06:39:09;;;;;;;28.10;18.20;;;4.10;99.90;;;;;;5030905;28;20442;-70
2022/12/28 06:41:38;;;;;;;28.30;18.33;;;4.10;99.90;;;;;;5030840;28;21008;-70
2022/12/28 06:44:06;;;;;;;30.80;17.10;;;4.10;99.90;;;;;;5030908;28;20544;-70
2022/12/28 06:46:32;;;;;;;28.83;16.97;;;4.10;99.90;;;;;;5032857;28;21051;-70
2022/12/28 06:48:59;;;;;;;27.30;17.53;;;4.10;99.90;;;;;;5033075;28;20458;-69
2022/12/28 06:51:28;;;;;;;28.50;17.70;;;4.20;99.90;;;;;;5031074;28;20450;-70
2022/12/28 06:53:55;;;;;;;31.13;18.17;;;4.20;99.90;;;;;;5030461;28;20540;-70
2022/12/28 06:56:23;;;;;;;34.67;17.30;;;4.20;99.90;;;;;;5030974;28;20985;-69
2022/12/28 06:58:53;;;;;;;25.63;17.50;;;4.20;99.90;;;;;;5027114;28;20507;-69
2022/12/28 07:01:22;;;;;;;26.83;17.10;;;4.20;99.90;;;;;;5030763;28;20464;-73
2022/12/28 07:03:53;;;;;;;38.03;17.33;;;4.20;99.90;;;;;;5034097;28;20441;-72
2022/12/28 07:06:21;;;;;;;25.03;16.93;;;4.20;99.90;;;;;;5034809;28;21005;-72
2022/12/28 07:08:49;;;;;;;33.13;16.23;;;4.20;99.90;;;;;;5034390;28;20479;-71
2022/12/28 07:11:19;;;;;;;25.97;17.07;;;4.20;99.90;;;;;;5034354;28;20449;-71
2022/12/28 07:13:46;;;;;;;26.23;15.80;;;4.20;99.90;;;;;;5034358;28;20485;-73
2022/12/28 07:16:16;;;;;;;25.70;16.83;;;4.20;99.90;;;;;;5034058;28;20999;-73
2022/12/28 07:18:42;;;;;;;26.50;16.77;;;4.20;99.90;;;;;;5036454;28;20961;-73
2022/12/28 07:21:12;;;;;;;32.03;16.80;;;4.30;99.90;;;;;;5033943;28;20968;-73
2022/12/28 07:23:39;;;;;;;28.97;17.37;;;4.30;99.90;;;;;;5033732;28;20466;-72
2022/12/28 07:26:08;;;;;;;28.60;15.00;;;4.30;99.90;;;;;;5035055;28;20900;-74
2022/12/28 07:28:37;;;;;;;32.90;15.60;;;4.30;99.90;;;;;;5034082;28;20942;-73
2022/12/28 07:31:06;;;;;;;30.57;15.67;;;4.40;99.90;;;;;;5034219;28;20483;-74
2022/12/28 07:33:36;;;;;;;24.83;15.13;;;4.40;99.90;;;;;;5033887;28;21036;-74
2022/12/28 07:36:03;;;;;;;21.60;14.77;;;4.40;99.90;;;;;;5039730;28;20827;-74
2022/12/28 07:38:29;;;;;;;23.63;14.00;;;4.50;99.90;;;;;;5033614;28;20511;-73
2022/12/28 07:41:01;;;;;;;25.73;14.50;;;4.50;99.90;;;;;;5034150;28;20520;-73
2022/12/28 07:43:28;;;;;;;22.90;13.90;;;4.60;99.90;;;;;;5033782;28;20454;-74
2022/12/28 07:46:00;;;;;;;25.87;14.80;;;4.60;99.90;;;;;;5039292;28;20507;-74
2022/12/28 07:48:28;;;;;;;20.40;12.87;;;4.70;99.90;;;;;;5036887;23;20590;-86
2022/12/28 07:50:56;;;;;;;20.27;13.30;;;4.70;99.90;;;;;;5000414;28;20460;-86
2022/12/28 07:53:22;;;;;;;23.73;12.50;;;4.80;99.90;;;;;;4996282;28;20536;-90
2022/12/28 07:55:55;;;;;;;15.63;11.70;;;4.80;99.90;;;;;;5011638;28;20533;-89
2022/12/28 07:58:22;;;;;;;14.50;11.07;;;4.80;99.90;;;;;;5009945;28;20522;-89
2022/12/28 08:00:49;;;;;;;20.97;12.87;;;4.90;99.90;;;;;;5011867;28;20450;-89
2022/12/28 08:03:16;;;;;;;21.57;12.13;;;5.00;99.90;;;;;;4997705;28;20956;-88
2022/12/28 08:05:47;;;;;;;17.77;11.87;;;5.00;99.90;;;;;;4995694;28;20463;-88
2022/12/28 08:08:15;;;;;;;14.80;10.67;;;5.10;99.90;;;;;;4998949;28;20458;-88
2022/12/28 08:10:42;;;;;;;18.60;10.83;;;5.10;99.90;;;;;;4995576;28;20458;-89
2022/12/28 08:13:09;;;;;;;16.73;10.80;;;5.20;99.90;;;;;;4997074;28;20475;-90
2022/12/28 08:15:36;;;;;;;22.20;10.90;;;5.20;99.90;;;;;;4997334;28;20484;-90
2022/12/28 08:18:02;;;;;;;12.23;9.20;;;5.30;99.90;;;;;;4997238;28;20451;-90
2022/12/28 08:20:29;;;;;;;16.47;10.03;;;5.30;99.90;;;;;;4996042;28;20471;-88
2022/12/28 08:22:56;;;;;;;14.47;8.87;;;5.40;99.90;;;;;;4997485;28;20479;-88
2022/12/28 08:25:24;;;;;;;14.03;9.90;;;5.40;99.90;;;;;;4995618;28;20512;-89
2022/12/28 08:27:50;;;;;;;15.93;10.10;;;5.50;99.90;;;;;;4993952;28;20456;-88
2022/12/28 08:30:17;;;;;;;18.67;9.33;;;5.50;99.90;;;;;;4996294;28;20451;-90
2022/12/28 08:32:44;;;;;;;11.60;8.90;;;5.50;99.90;;;;;;4995390;28;20464;-91
2022/12/28 08:35:11;;;;;;;10.33;8.57;;;5.60;99.90;;;;;;4996452;28;20483;-88
2022/12/28 08:37:37;;;;;;;15.83;8.77;;;5.60;99.90;;;;;;4996789;28;20463;-88
2022/12/28 08:40:05;;;;;;;15.43;9.00;;;5.70;99.90;;;;;;4998336;28;20456;-87
2022/12/28 08:42:33;;;;;;;13.00;7.97;;;5.80;99.90;;;;;;4995665;28;20456;-86
2022/12/28 08:45:00;;;;;;;11.20;8.13;;;5.80;99.90;;;;;;4997424;28;20530;-88
2022/12/28 08:47:27;;;;;;;18.10;9.60;;;5.80;99.90;;;;;;4997084;28;20832;-88
2022/12/28 08:49:54;;;;;;;13.43;7.50;;;5.80;99.90;;;;;;4994003;28;20463;-89
2022/12/28 08:52:21;;;;;;;13.33;7.43;;;6.00;99.90;;;;;;4998188;28;20965;-88
2022/12/28 08:54:47;;;;;;;12.77;8.30;;;5.90;99.90;;;;;;4994189;28;20487;-89
2022/12/28 08:57:14;;;;;;;13.27;9.40;;;5.90;99.90;;;;;;4998786;28;20455;-92
2022/12/28 08:59:48;;;;;;;12.50;8.60;;;6.00;99.90;;;;;;4996673;28;20463;-88
2022/12/28 09:02:15;;;;;;;10.60;6.17;;;6.00;99.90;;;;;;4999651;28;20466;-89
2022/12/28 09:04:42;;;;;;;14.50;7.10;;;6.10;99.90;;;;;;4994627;28;20837;-88
2022/12/28 09:07:09;;;;;;;15.93;6.30;;;6.30;99.90;;;;;;4997032;28;20452;-89
2022/12/28 09:09:36;;;;;;;9.73;6.40;;;6.10;99.90;;;;;;4996611;28;20467;-88
2022/12/28 09:12:03;;;;;;;10.97;7.27;;;6.20;99.90;;;;;;4996468;28;20466;-87
2022/12/28 09:14:30;;;;;;;10.10;7.10;;;6.20;99.90;;;;;;4997825;28;20483;-88
2022/12/28 09:16:59;;;;;;;8.03;6.10;;;6.20;99.90;;;;;;4996690;28;20456;-91
2022/12/28 09:19:26;;;;;;;11.53;6.70;;;6.20;99.90;;;;;;4994627;28;20459;-89
2022/12/28 09:21:54;;;;;;;17.30;6.63;;;6.20;99.90;;;;;;4995999;28;20460;-90
2022/12/28 09:24:21;;;;;;;12.40;6.57;;;6.30;99.90;;;;;;4995105;28;20475;-89
2022/12/28 09:26:51;;;;;;;13.40;7.10;;;6.30;99.90;;;;;;4995543;28;20483;-89
2022/12/28 09:29:18;;;;;;;8.20;6.33;;;6.30;99.90;;;;;;4996308;28;20463;-89
2022/12/28 09:31:45;;;;;;;19.07;6.67;;;6.30;99.90;;;;;;4999896;28;20547;-89
2022/12/28 09:34:13;;;;;;;17.30;7.40;;;6.40;99.90;;;;;;4997176;28;20492;-90
2022/12/28 09:36:42;;;;;;;11.33;7.00;;;6.40;99.90;;;;;;4994251;28;20462;-90
2022/12/28 09:39:12;;;;;;;13.43;7.40;;;6.40;99.90;;;;;;5000993;28;20468;-88
2022/12/28 09:41:44;;;;;;;8.20;6.00;;;6.40;99.90;;;;;;4992642;28;20494;-88
2022/12/28 09:44:41;;;;;;;10.60;7.07;;;6.40;99.90;;;;;;4992874;28;21036;-86
2022/12/28 09:47:18;;;;;;;14.97;7.27;;;6.40;99.90;;;;;;4999110;28;20460;-88
2022/12/28 09:50:02;;;;;;;12.03;6.57;;;6.40;99.90;;;;;;4994018;28;20455;-89
2022/12/28 09:52:30;;;;;;;8.90;5.57;;;6.50;99.90;;;;;;4992530;28;20466;-88
2022/12/28 09:55:04;;;;;;;8.40;6.87;;;6.50;99.90;;;;;;4992755;28;20498;-88
2022/12/28 09:57:37;;;;;;;13.30;7.23;;;6.50;99.90;;;;;;4991405;28;20455;-89
2022/12/28 10:00:06;;;;;;;11.33;5.77;;;6.60;99.90;;;;;;4997260;28;20448;-87
2022/12/28 10:02:36;;;;;;;11.10;5.90;;;6.60;99.90;;;;;;4994073;28;20879;-88
2022/12/28 10:05:05;;;;;;;9.97;6.00;;;6.60;99.90;;;;;;4995416;28;20467;-88
2022/12/28 10:07:32;;;;;;;8.57;6.03;;;6.60;99.90;;;;;;4984618;28;20528;-88
2022/12/28 10:09:59;;;;;;;14.40;7.43;;;6.50;99.90;;;;;;4992741;28;20452;-88
2022/12/28 10:12:25;;;;;;;9.53;6.70;;;6.50;99.90;;;;;;4989315;28;20482;-91
2022/12/28 10:14:54;;;;;;;7.93;6.50;;;6.40;99.90;;;;;;4986640;28;20510;-87
2022/12/28 10:17:26;;;;;;;13.00;7.00;;;6.40;99.90;;;;;;4988006;28;20451;-88
2022/12/28 10:19:56;;;;;;;8.43;6.23;;;6.40;99.90;;;;;;4988026;28;20462;-87
2022/12/28 10:22:28;;;;;;;8.80;6.53;;;6.40;99.90;;;;;;4987815;28;20459;-89
2022/12/28 10:24:54;;;;;;;10.27;6.40;;;6.50;99.90;;;;;;4988116;28;20833;-89
2022/12/28 10:27:23;;;;;;;7.60;6.30;;;6.50;99.90;;;;;;4987688;28;20483;-90
2022/12/28 10:29:51;;;;;;;7.80;6.60;;;6.50;99.90;;;;;;4988212;28;20495;-88
2022/12/28 10:32:19;;;;;;;10.13;6.23;;;6.60;99.90;;;;;;4989378;28;20539;-90
2022/12/28 10:34:56;;;;;;;8.90;6.20;;;6.60;99.90;;;;;;4988704;28;20494;-89
2022/12/28 10:37:25;;;;;;;10.17;6.80;;;6.70;99.90;;;;;;4993002;28;21061;-89
2022/12/28 10:39:56;;;;;;;8.00;6.33;;;6.80;99.90;;;;;;4991824;28;20882;-87
2022/12/28 10:42:27;;;;;;;13.13;7.40;;;6.90;99.90;;;;;;4991839;28;20550;-89
2022/12/28 10:45:01;;;;;;;8.90;6.20;;;7.10;99.90;;;;;;4991454;28;20474;-88
2022/12/28 10:47:34;;;;;;;8.00;6.50;;;7.20;99.90;;;;;;4990078;28;20489;-89
2022/12/28 10:50:00;;;;;;;8.53;5.87;;;7.20;99.90;;;;;;4990542;28;20474;-93
2022/12/28 10:52:29;;;;;;;7.00;5.70;;;7.20;99.90;;;;;;4992444;28;20459;-91
2022/12/28 10:54:55;;;;;;;13.93;7.43;;;7.20;99.90;;;;;;4991091;28;20491;-89
2022/12/28 10:57:29;;;;;;;8.47;5.80;;;7.10;99.90;;;;;;4995566;28;20462;-89
2022/12/28 11:00:14;;;;;;;7.43;6.10;;;7.10;99.90;;;;;;4993524;28;20459;-90
2022/12/28 11:02:42;;;;;;;8.03;6.10;;;7.00;99.90;;;;;;4998017;28;20459;-92
2022/12/28 11:05:19;;;;;;;10.60;6.73;;;6.90;99.90;;;;;;5012895;28;20576;-93
2022/12/28 11:07:49;;;;;;;7.47;6.00;;;7.00;99.90;;;;;;5011527;28;20447;-90
2022/12/28 11:10:28;;;;;;;11.40;5.30;;;7.00;99.90;;;;;;4998827;28;20975;-87
2022/12/28 11:12:56;;;;;;;16.00;6.50;;;7.10;99.90;;;;;;4996817;28;20451;-90
2022/12/28 11:15:25;;;;;;;9.70;5.80;;;7.00;99.90;;;;;;4997419;28;20592;-88
2022/12/28 11:17:55;;;;;;;5.87;5.37;;;7.00;99.90;;;;;;4994993;28;20468;-87
2022/12/28 11:20:26;;;;;;;10.20;6.00;;;7.10;99.90;;;;;;4993364;28;20468;-88
2022/12/28 11:22:54;;;;;;;8.87;5.93;;;7.20;99.90;;;;;;4994308;28;20491;-88
2022/12/28 11:25:28;;;;;;;8.63;6.23;;;7.30;99.90;;;;;;4993041;28;20474;-89
2022/12/28 11:27:55;;;;;;;6.37;5.00;;;7.40;99.90;;;;;;4997387;28;20460;-88
2022/12/28 11:30:22;;;;;;;5.57;4.67;;;7.50;99.90;;;;;;4993195;28;20526;-88
2022/12/28 11:32:52;;;;;;;13.53;5.30;;;7.70;99.90;;;;;;4994290;28;20451;-87
2022/12/28 11:35:22;;;;;;;6.70;4.73;;;7.70;99.90;;;;;;4995792;28;20486;-87
2022/12/28 11:37:50;;;;;;;5.63;5.03;;;7.80;99.90;;;;;;4995679;28;20463;-88
2022/12/28 11:40:53;;;;;;;7.30;5.10;;;7.90;99.90;;;;;;4994197;28;20945;-87
2022/12/28 11:43:48;;;;;;;9.57;4.90;;;7.90;99.90;;;;;;4994738;28;20530;-87
2022/12/28 11:46:39;;;;;;;7.83;4.30;;;8.00;99.90;;;;;;4993868;28;20444;-87
2022/12/28 11:49:21;;;;;;;9.47;4.90;;;8.10;99.90;;;;;;4993601;28;20471;-88
2022/12/28 11:52:05;;;;;;;15.37;5.07;;;8.10;99.90;;;;;;4996506;28;20467;-87
2022/12/28 11:54:38;;;;;;;6.53;4.57;;;8.20;99.90;;;;;;4996542;28;20518;-86
2022/12/28 11:57:09;;;;;;;4.70;4.30;;;8.20;99.90;;;;;;4995980;28;20489;-88
2022/12/28 11:59:36;;;;;;;5.50;3.57;;;8.30;99.90;;;;;;4995227;28;20990;-87
2022/12/28 12:02:39;;;;;;;21.40;4.50;;;8.30;99.90;;;;;;4994916;28;20452;-88
2022/12/28 12:05:41;;;;;;;6.70;3.80;;;8.40;99.90;;;;;;4993227;28;20471;-88
2022/12/28 12:08:41;;;;;;;10.23;4.20;;;8.50;99.90;;;;;;4988844;28;21031;-87
2022/12/28 12:11:27;;;;;;;5.50;4.33;;;8.50;99.90;;;;;;4994141;28;20455;-89
2022/12/28 12:13:58;;;;;;;6.20;4.07;;;8.50;99.90;;;;;;4993696;28;20980;-88
2022/12/28 12:16:32;;;;;;;7.30;4.40;;;8.60;99.90;;;;;;4994910;28;20486;-87
2022/12/28 12:19:00;;;;;;;5.90;3.83;;;8.60;99.90;;;;;;4995074;28;20514;-86
2022/12/28 12:21:35;;;;;;;6.47;3.60;;;8.90;99.90;;;;;;4994843;28;20481;-88
2022/12/28 12:24:18;;;;;;;7.00;3.90;;;8.80;99.90;;;;;;4992170;28;20479;-88
2022/12/28 12:26:57;;;;;;;5.03;4.57;;;8.80;99.90;;;;;;4992896;28;20474;-87
2022/12/28 12:29:34;;;;;;;9.00;4.13;;;8.70;99.90;;;;;;4998356;28;20980;-88
2022/12/28 12:32:05;;;;;;;5.87;4.80;;;8.60;99.90;;;;;;4996735;28;20448;-91
2022/12/28 12:34:41;;;;;;;6.40;3.80;;;8.60;99.90;;;;;;4994658;28;20531;-89
2022/12/28 12:37:44;;;;;;;5.60;4.20;;;8.40;99.90;;;;;;4997322;28;20455;-88
2022/12/28 12:40:50;;;;;;;9.87;4.40;;;8.40;99.90;;;;;;4989926;28;20969;-87
2022/12/28 12:43:31;;;;;;;9.60;4.63;;;8.30;99.90;;;;;;4995565;28;20455;-86
2022/12/28 12:46:13;;;;;;;4.73;4.30;;;8.20;99.90;;;;;;4992236;28;20472;-86
2022/12/28 12:49:03;;;;;;;10.73;4.63;;;8.20;99.90;;;;;;4997306;28;20467;-86
2022/12/28 12:51:36;;;;;;;9.70;4.20;;;8.10;99.90;;;;;;4995552;28;20451;-87
2022/12/28 12:54:22;;;;;;;6.50;4.60;;;8.20;99.90;;;;;;4994498;28;20479;-87
2022/12/28 12:56:53;;;;;;;8.27;4.40;;;8.10;99.90;;;;;;4993660;28;20448;-86
2022/12/28 12:59:44;;;;;;;12.57;5.10;;;8.10;99.90;;;;;;4993634;28;20546;-90
2022/12/28 13:02:31;;;;;;;4.80;3.93;;;8.10;99.90;;;;;;4990317;28;20510;-87
2022/12/28 13:05:01;;;;;;;5.40;4.37;;;8.10;99.90;;;;;;4990613;28;20547;-87
2022/12/28 13:07:28;;;;;;;8.30;4.93;;;8.20;99.90;;;;;;4990912;28;20510;-89
2022/12/28 13:09:58;;;;;;;6.90;4.60;;;8.10;99.90;;;;;;4991784;28;20467;-88
2022/12/28 13:12:25;;;;;;;8.73;5.00;;;8.20;99.90;;;;;;4990702;28;20456;-89
2022/12/28 13:15:01;;;;;;;4.77;4.27;;;8.10;99.90;;;;;;4990297;28;20550;-88
2022/12/28 13:17:29;;;;;;;8.30;4.00;;;8.20;99.90;;;;;;4989254;28;20468;-88
2022/12/28 13:20:09;;;;;;;8.47;3.17;;;8.30;99.90;;;;;;4991187;28;20487;-87
2022/12/28 13:22:36;;;;;;;7.53;3.30;;;8.70;99.90;;;;;;4989505;28;20527;-89
2022/12/28 13:25:03;;;;;;;3.73;3.00;;;8.60;99.90;;;;;;4991670;28;20478;-88